Time,TemperatureF,DewpointF,PressureIn,WindDirection,WindDirectionDegrees,WindSpeedMPH,WindSpeedGustMPH,Humidity,HourlyPrecipIn,Conditions,Clouds,dailyrainin,SoftwareType,DateUTC
2013-02-17 00:01:00,40.3,37.6,30.01,West,277,0.0,2.0,90,0.00,,,0.00,meteohub,2013-02-17 08:01:00,
2013-02-17 00:06:00,40.3,37.9,30.00,West,277,0.0,2.0,91,0.00,,,0.00,meteohub,2013-02-17 08:06:00,
2013-02-17 00:11:00,40.5,38.1,30.00,West,277,0.0,2.0,91,0.00,,,0.00,meteohub,2013-02-17 08:11:00,
2013-02-17 00:16:00,40.5,38.1,30.00,West,277,0.0,0.0,91,0.00,,,0.00,meteohub,2013-02-17 08:16:00,
2013-02-17 00:22:00,40.1,37.4,30.00,West,277,0.0,1.0,90,0.00,,,0.00,meteohub,2013-02-17 08:22:00,
2013-02-17 00:27:00,39.9,37.6,30.00,West,277,0.0,1.0,91,0.00,,,0.00,meteohub,2013-02-17 08:27:00,
2013-02-17 00:32:00,39.7,37.4,30.00,West,277,0.0,1.0,91,0.00,,,0.00,meteohub,2013-02-17 08:32:00,
2013-02-17 00:37:00,39.7,37.4,30.00,West,277,0.0,1.0,91,0.00,,,0.00,meteohub,2013-02-17 08:37:00,
2013-02-17 00:42:00,39.4,37.0,30.00,West,277,0.0,1.0,91,0.00,,,0.00,meteohub,2013-02-17 08:42:00,
2013-02-17 00:47:00,39.4,37.2,30.00,West,277,0.0,0.0,92,0.00,,,0.00,meteohub,2013-02-17 08:47:00,
2013-02-17 00:52:00,39.4,37.2,30.00,West,277,0.0,0.0,92,0.00,,,0.00,meteohub,2013-02-17 08:52:00,
2013-02-17 00:57:00,39.4,37.2,30.00,West,277,0.0,0.0,92,0.00,,,0.00,meteohub,2013-02-17 08:57:00,
2013-02-17 01:02:00,39.4,37.2,30.00,West,277,0.0,0.0,92,0.00,,,0.00,meteohub,2013-02-17 09:02:00,
2013-02-17 01:07:00,39.4,37.2,30.00,West,277,0.0,0.0,92,0.00,,,0.00,meteohub,2013-02-17 09:07:00,
2013-02-17 01:12:00,39.0,36.9,30.00,West,277,0.0,1.0,92,0.00,,,0.00,meteohub,2013-02-17 09:12:00,
2013-02-17 01:17:00,38.7,36.5,30.00,West,277,1.0,1.0,92,0.00,,,0.00,meteohub,2013-02-17 09:17:00,
2013-02-17 01:22:00,38.7,36.5,30.00,West,277,0.0,1.0,92,0.00,,,0.00,meteohub,2013-02-17 09:22:00,
2013-02-17 01:27:00,38.5,36.3,30.00,West,277,0.0,1.0,92,0.00,,,0.00,meteohub,2013-02-17 09:27:00,
2013-02-17 01:32:00,38.5,36.3,30.00,West,277,0.0,0.0,92,0.00,,,0.00,meteohub,2013-02-17 09:32:00,
2013-02-17 01:37:00,38.3,36.1,30.00,West,277,0.0,1.0,92,0.00,,,0.00,meteohub,2013-02-17 09:37:00,
2013-02-17 01:42:00,38.1,36.0,30.00,West,277,0.0,1.0,92,0.00,,,0.00,meteohub,2013-02-17 09:42:00,
2013-02-17 01:47:00,37.9,35.8,30.00,West,277,0.0,1.0,92,0.00,,,0.00,meteohub,2013-02-17 09:47:00,
2013-02-17 01:52:00,38.1,36.3,30.00,West,277,0.0,1.0,93,0.00,,,0.00,meteohub,2013-02-17 09:52:00,
2013-02-17 01:57:00,37.9,36.1,30.00,West,277,0.0,1.0,93,0.00,,,0.00,meteohub,2013-02-17 09:57:00,
2013-02-17 02:02:00,37.9,36.1,30.00,West,277,0.0,1.0,93,0.00,,,0.00,meteohub,2013-02-17 10:02:00,
2013-02-17 02:07:00,37.8,36.0,29.99,West,277,0.0,0.0,93,0.00,,,0.00,meteohub,2013-02-17 10:07:00,
2013-02-17 02:13:00,37.6,35.8,29.99,West,277,0.0,0.0,93,0.00,,,0.00,meteohub,2013-02-17 10:13:00,
2013-02-17 02:18:00,37.6,35.8,29.99,West,277,0.0,0.0,93,0.00,,,0.00,meteohub,2013-02-17 10:18:00,
2013-02-17 02:23:00,37.6,35.8,29.99,West,277,0.0,1.0,93,0.00,,,0.00,meteohub,2013-02-17 10:23:00,
2013-02-17 02:28:00,37.4,35.6,29.99,West,277,0.0,1.0,93,0.00,,,0.00,meteohub,2013-02-17 10:28:00,
2013-02-17 02:33:00,37.2,35.4,29.99,West,277,0.0,0.0,93,0.00,,,0.00,meteohub,2013-02-17 10:33:00,
2013-02-17 02:38:00,37.2,35.4,29.99,West,277,0.0,0.0,93,0.00,,,0.00,meteohub,2013-02-17 10:38:00,
2013-02-17 02:43:00,36.9,35.1,29.99,West,277,0.0,0.0,93,0.00,,,0.00,meteohub,2013-02-17 10:43:00,
2013-02-17 02:48:00,36.9,35.1,29.99,West,277,0.0,0.0,93,0.00,,,0.00,meteohub,2013-02-17 10:48:00,
2013-02-17 02:53:00,37.0,35.4,29.98,West,277,0.0,1.0,94,0.00,,,0.00,meteohub,2013-02-17 10:53:00,
2013-02-17 02:58:00,37.0,35.4,29.98,West,277,0.0,1.0,94,0.00,,,0.00,meteohub,2013-02-17 10:58:00,
2013-02-17 03:03:00,36.7,34.9,29.98,West,277,0.0,1.0,93,0.00,,,0.00,meteohub,2013-02-17 11:03:00,
2013-02-17 03:08:00,36.7,34.9,29.97,West,277,0.0,1.0,93,0.00,,,0.00,meteohub,2013-02-17 11:08:00,
2013-02-17 03:13:00,36.3,34.5,29.97,West,277,0.0,0.0,93,0.00,,,0.00,meteohub,2013-02-17 11:13:00,
2013-02-17 03:18:00,36.1,34.3,29.97,West,277,0.0,0.0,93,0.00,,,0.00,meteohub,2013-02-17 11:18:00,
2013-02-17 03:23:00,36.3,34.7,29.97,West,277,0.0,0.0,94,0.00,,,0.00,meteohub,2013-02-17 11:23:00,
2013-02-17 03:28:00,36.3,34.7,29.97,West,277,0.0,1.0,94,0.00,,,0.00,meteohub,2013-02-17 11:28:00,
2013-02-17 03:33:00,36.3,34.7,29.97,West,277,0.0,1.0,94,0.00,,,0.00,meteohub,2013-02-17 11:33:00,
2013-02-17 03:38:00,36.3,34.7,29.97,West,277,0.0,1.0,94,0.00,,,0.00,meteohub,2013-02-17 11:38:00,
2013-02-17 03:43:00,36.5,34.9,29.97,West,277,0.0,1.0,94,0.00,,,0.00,meteohub,2013-02-17 11:43:00,
2013-02-17 03:48:00,36.3,34.7,29.97,SW,229,0.0,1.0,94,0.00,,,0.00,meteohub,2013-02-17 11:48:00,
2013-02-17 03:53:00,36.0,34.2,29.97,SW,230,0.0,3.0,93,0.00,,,0.00,meteohub,2013-02-17 11:53:00,
2013-02-17 03:58:00,36.0,34.2,29.97,SW,230,0.0,3.0,93,0.00,,,0.00,meteohub,2013-02-17 11:58:00,
2013-02-17 04:03:00,36.0,34.3,29.97,SW,230,0.0,1.0,94,0.00,,,0.00,meteohub,2013-02-17 12:03:00,
2013-02-17 04:08:00,36.0,34.3,29.97,SW,230,0.0,1.0,94,0.00,,,0.00,meteohub,2013-02-17 12:08:00,
2013-02-17 04:13:00,35.8,34.2,29.97,SW,230,0.0,1.0,94,0.00,,,0.00,meteohub,2013-02-17 12:13:00,
2013-02-17 04:18:00,35.4,33.8,29.97,SW,229,0.0,1.0,94,0.00,,,0.00,meteohub,2013-02-17 12:18:00,
2013-02-17 04:23:00,35.1,33.3,29.97,SW,229,0.0,0.0,93,0.00,,,0.00,meteohub,2013-02-17 12:23:00,
2013-02-17 04:29:00,35.1,33.3,29.97,SW,230,0.0,0.0,93,0.00,,,0.00,meteohub,2013-02-17 12:29:00,
2013-02-17 04:34:00,34.9,33.3,29.97,SW,230,0.0,0.0,94,0.00,,,0.00,meteohub,2013-02-17 12:34:00,
2013-02-17 04:39:00,35.1,33.4,29.97,SSW,210,0.0,0.0,94,0.00,,,0.00,meteohub,2013-02-17 12:39:00,
2013-02-17 04:44:00,35.1,33.4,29.97,SSW,210,0.0,0.0,94,0.00,,,0.00,meteohub,2013-02-17 12:44:00,
2013-02-17 04:49:00,35.1,33.4,29.97,SSE,162,0.0,0.0,94,0.00,,,0.00,meteohub,2013-02-17 12:49:00,
2013-02-17 04:54:00,35.1,33.4,29.97,SSE,161,0.0,0.0,94,0.00,,,0.00,meteohub,2013-02-17 12:54:00,
2013-02-17 04:59:00,35.2,34.0,29.97,West,275,0.0,0.0,95,0.00,,,0.00,meteohub,2013-02-17 12:59:00,
2013-02-17 05:04:00,35.4,34.2,29.97,West,276,0.0,2.0,95,0.00,,,0.00,meteohub,2013-02-17 13:04:00,
2013-02-17 05:09:00,35.2,34.0,29.97,West,275,0.0,2.0,95,0.00,,,0.00,meteohub,2013-02-17 13:09:00,
2013-02-17 05:14:00,35.2,34.0,29.97,West,276,0.0,2.0,95,0.00,,,0.00,meteohub,2013-02-17 13:14:00,
2013-02-17 05:19:00,35.2,33.6,29.97,West,275,0.0,0.0,94,0.00,,,0.00,meteohub,2013-02-17 13:19:00,
2013-02-17 05:24:00,35.1,33.4,29.98,West,276,0.0,0.0,94,0.00,,,0.00,meteohub,2013-02-17 13:24:00,
2013-02-17 05:29:00,34.9,33.6,29.98,West,275,0.0,0.0,95,0.00,,,0.00,meteohub,2013-02-17 13:29:00,
2013-02-17 05:34:00,34.9,33.3,29.98,West,276,0.0,0.0,94,0.00,,,0.00,meteohub,2013-02-17 13:34:00,
2013-02-17 05:39:00,34.9,33.6,29.98,West,276,0.0,0.0,95,0.00,,,0.00,meteohub,2013-02-17 13:39:00,
2013-02-17 05:44:00,35.1,33.8,29.98,West,275,1.0,1.0,95,0.00,,,0.00,meteohub,2013-02-17 13:44:00,
2013-02-17 05:49:00,35.1,33.8,29.98,West,275,0.0,1.0,95,0.00,,,0.00,meteohub,2013-02-17 13:49:00,
2013-02-17 05:54:00,34.9,33.6,29.98,West,276,0.0,1.0,95,0.00,,,0.00,meteohub,2013-02-17 13:54:00,
2013-02-17 05:59:00,34.5,33.3,29.98,West,276,0.0,1.0,95,0.00,,,0.00,meteohub,2013-02-17 13:59:00,
2013-02-17 06:04:00,34.3,33.1,29.98,West,276,1.0,1.0,95,0.00,,,0.00,meteohub,2013-02-17 14:04:00,
2013-02-17 06:09:00,34.2,32.5,29.99,West,275,0.0,1.0,94,0.00,,,0.00,meteohub,2013-02-17 14:09:00,
2013-02-17 06:14:00,34.2,32.9,29.99,West,276,0.0,1.0,95,0.00,,,0.00,meteohub,2013-02-17 14:14:00,
2013-02-17 06:19:00,34.2,32.9,29.99,NW,309,0.0,1.0,95,0.00,,,0.00,meteohub,2013-02-17 14:19:00,
2013-02-17 06:24:00,34.2,32.9,29.99,NW,309,0.0,1.0,95,0.00,,,0.00,meteohub,2013-02-17 14:24:00,
2013-02-17 06:30:00,34.3,33.1,29.99,NW,310,0.0,1.0,95,0.00,,,0.00,meteohub,2013-02-17 14:30:00,
2013-02-17 06:35:00,34.3,33.1,29.99,NW,310,0.0,1.0,95,0.00,,,0.00,meteohub,2013-02-17 14:35:00,
2013-02-17 06:40:00,34.2,32.9,29.99,NW,310,0.0,1.0,95,0.00,,,0.00,meteohub,2013-02-17 14:40:00,
2013-02-17 06:45:00,34.0,32.7,29.99,NW,309,0.0,1.0,95,0.00,,,0.00,meteohub,2013-02-17 14:45:00,
2013-02-17 06:50:00,33.6,32.4,29.99,NW,310,0.0,1.0,95,0.00,,,0.00,meteohub,2013-02-17 14:50:00,
2013-02-17 06:55:00,34.0,32.7,29.99,NNW,337,0.0,1.0,95,0.00,,,0.00,meteohub,2013-02-17 14:55:00,
2013-02-17 07:00:00,33.6,32.4,29.99,NNW,336,0.0,1.0,95,0.00,,,0.00,meteohub,2013-02-17 15:00:00,
2013-02-17 07:05:00,33.6,32.4,30.01,NNW,337,0.0,1.0,95,0.00,,,0.00,meteohub,2013-02-17 15:05:00,
2013-02-17 07:10:00,33.8,32.5,30.01,NNW,336,1.0,0.0,95,0.00,,,0.00,meteohub,2013-02-17 15:10:00,
2013-02-17 07:15:00,33.8,32.5,30.01,NNW,336,0.0,1.0,95,0.00,,,0.00,meteohub,2013-02-17 15:15:00,
2013-02-17 07:20:00,34.0,32.7,30.01,NNW,336,0.0,1.0,95,0.00,,,0.00,meteohub,2013-02-17 15:20:00,
2013-02-17 07:25:00,34.0,32.7,30.01,NNW,336,0.0,1.0,95,0.00,,,0.00,meteohub,2013-02-17 15:25:00,
2013-02-17 07:30:00,34.2,32.9,30.01,NNW,337,0.0,0.0,95,0.00,,,0.00,meteohub,2013-02-17 15:30:00,
2013-02-17 07:35:00,34.5,33.3,30.01,NNW,336,0.0,0.0,95,0.00,,,0.00,meteohub,2013-02-17 15:35:00,
2013-02-17 07:40:00,35.6,34.5,30.01,NNW,338,0.0,0.0,96,0.00,,,0.00,meteohub,2013-02-17 15:40:00,
2013-02-17 07:45:00,36.1,35.1,30.01,ENE,58,0.0,1.0,96,0.00,,,0.00,meteohub,2013-02-17 15:45:00,
2013-02-17 07:50:00,36.9,35.8,30.00,ENE,59,0.0,1.0,96,0.00,,,0.00,meteohub,2013-02-17 15:50:00,
2013-02-17 07:55:00,37.2,36.0,30.00,ENE,60,1.0,1.0,95,0.00,,,0.00,meteohub,2013-02-17 15:55:00,
2013-02-17 08:00:00,38.1,36.9,30.00,ENE,60,0.0,1.0,95,0.00,,,0.00,meteohub,2013-02-17 16:00:00,
2013-02-17 08:05:00,39.0,37.8,29.99,ENE,61,0.0,1.0,95,0.00,,,0.00,meteohub,2013-02-17 16:05:00,
2013-02-17 08:10:00,39.0,37.2,29.99,ENE,64,0.0,1.0,93,0.00,,,0.00,meteohub,2013-02-17 16:10:00,
2013-02-17 08:16:00,39.0,36.9,29.99,NNE,15,0.0,1.0,92,0.00,,,0.00,meteohub,2013-02-17 16:16:00,
2013-02-17 08:21:00,39.4,37.2,30.00,NNE,15,1.0,1.0,92,0.00,,,0.00,meteohub,2013-02-17 16:21:00,
2013-02-17 08:26:00,39.9,37.8,30.00,NNE,15,0.0,1.0,92,0.00,,,0.00,meteohub,2013-02-17 16:26:00,
2013-02-17 08:31:00,40.8,38.7,30.00,NNE,16,0.0,1.0,92,0.00,,,0.00,meteohub,2013-02-17 16:31:00,
2013-02-17 08:36:00,41.7,39.2,30.00,North,351,0.0,1.0,91,0.00,,,0.00,meteohub,2013-02-17 16:36:00,
2013-02-17 08:41:00,42.6,39.9,30.00,North,349,0.0,1.0,90,0.00,,,0.00,meteohub,2013-02-17 16:41:00,
2013-02-17 08:46:00,43.5,39.9,30.00,South,190,2.0,2.0,87,0.00,,,0.00,meteohub,2013-02-17 16:46:00,
2013-02-17 08:51:00,44.2,40.1,30.01,SSW,207,1.0,2.0,85,0.00,,,0.00,meteohub,2013-02-17 16:51:00,
2013-02-17 08:56:00,45.0,40.5,30.01,SSE,167,1.0,2.0,84,0.00,,,0.00,meteohub,2013-02-17 16:56:00,
2013-02-17 09:01:00,45.3,40.1,30.01,South,186,2.0,2.0,82,0.00,,,0.00,meteohub,2013-02-17 17:01:00,
2013-02-17 09:06:00,46.0,40.5,30.00,SSW,196,0.0,3.0,81,0.00,,,0.00,meteohub,2013-02-17 17:06:00,
2013-02-17 09:11:00,46.6,40.8,30.00,SW,233,1.0,3.0,80,0.00,,,0.00,meteohub,2013-02-17 17:11:00,
2013-02-17 09:16:00,47.1,41.4,30.00,South,179,0.0,2.0,80,0.00,,,0.00,meteohub,2013-02-17 17:16:00,
2013-02-17 09:21:00,48.0,41.5,30.01,SSW,211,1.0,2.0,78,0.00,,,0.00,meteohub,2013-02-17 17:21:00,
2013-02-17 09:26:00,48.4,41.9,30.01,South,172,3.0,3.0,78,0.00,,,0.00,meteohub,2013-02-17 17:26:00,
2013-02-17 09:31:00,48.6,42.1,30.01,SSW,209,3.0,4.0,78,0.00,,,0.00,meteohub,2013-02-17 17:31:00,
2013-02-17 09:36:00,48.0,41.5,30.01,South,188,1.0,5.0,78,0.00,,,0.00,meteohub,2013-02-17 17:36:00,
2013-02-17 09:41:00,48.4,41.9,30.01,SW,229,3.0,5.0,78,0.00,,,0.00,meteohub,2013-02-17 17:41:00,
2013-02-17 09:46:00,48.6,41.7,30.01,South,191,3.0,5.0,77,0.00,,,0.00,meteohub,2013-02-17 17:46:00,
2013-02-17 09:51:00,48.9,41.7,30.00,SSW,202,4.0,4.0,76,0.00,,,0.00,meteohub,2013-02-17 17:51:00,
2013-02-17 09:56:00,49.5,42.3,30.00,South,191,1.0,4.0,76,0.00,,,0.00,meteohub,2013-02-17 17:56:00,
2013-02-17 10:01:00,50.0,42.1,30.00,SE,136,0.0,4.0,74,0.00,,,0.00,meteohub,2013-02-17 18:01:00,
2013-02-17 10:06:00,50.4,42.1,30.00,South,191,1.0,4.0,73,0.00,,,0.00,meteohub,2013-02-17 18:06:00,
2013-02-17 10:11:00,51.1,42.8,30.00,WSW,248,2.0,3.0,73,0.00,,,0.00,meteohub,2013-02-17 18:11:00,
2013-02-17 10:16:00,51.4,42.4,30.00,South,184,0.0,4.0,71,0.00,,,0.00,meteohub,2013-02-17 18:16:00,
2013-02-17 10:21:00,52.2,42.3,30.00,SSW,200,1.0,4.0,69,0.00,,,0.00,meteohub,2013-02-17 18:21:00,
2013-02-17 10:26:00,52.5,42.6,30.00,SSW,202,1.0,3.0,69,0.00,,,0.00,meteohub,2013-02-17 18:26:00,
2013-02-17 10:32:00,53.1,42.8,30.00,WSW,237,1.0,3.0,68,0.00,,,0.00,meteohub,2013-02-17 18:32:00,
2013-02-17 10:37:00,53.2,42.6,30.00,SW,229,2.0,3.0,67,0.00,,,0.00,meteohub,2013-02-17 18:37:00,
2013-02-17 10:42:00,53.4,42.8,30.00,SSW,213,4.0,4.0,67,0.00,,,0.00,meteohub,2013-02-17 18:42:00,
2013-02-17 10:47:00,53.8,43.2,30.00,WNW,282,2.0,4.0,67,0.00,,,0.00,meteohub,2013-02-17 18:47:00,
2013-02-17 10:52:00,54.3,42.8,30.00,West,267,2.0,4.0,65,0.00,,,0.00,meteohub,2013-02-17 18:52:00,
2013-02-17 10:57:00,54.5,43.0,30.00,WSW,254,2.0,4.0,65,0.00,,,0.00,meteohub,2013-02-17 18:57:00,
2013-02-17 11:02:00,54.9,43.3,30.00,SSW,205,1.0,3.0,65,0.00,,,0.00,meteohub,2013-02-17 19:02:00,
2013-02-17 11:07:00,55.6,43.2,30.00,West,275,2.0,3.0,63,0.00,,,0.00,meteohub,2013-02-17 19:07:00,
2013-02-17 11:12:00,56.1,43.7,30.00,SW,214,2.0,4.0,63,0.00,,,0.00,meteohub,2013-02-17 19:12:00,
2013-02-17 11:17:00,56.3,43.5,30.00,WSW,248,2.0,4.0,62,0.00,,,0.00,meteohub,2013-02-17 19:17:00,
2013-02-17 11:22:00,56.1,43.3,30.00,WSW,240,3.0,4.0,62,0.00,,,0.00,meteohub,2013-02-17 19:22:00,
2013-02-17 11:27:00,56.1,43.3,30.00,SSW,211,3.0,4.0,62,0.00,,,0.00,meteohub,2013-02-17 19:27:00,
2013-02-17 11:32:00,56.7,43.0,30.00,SSE,152,2.0,6.0,60,0.00,,,0.00,meteohub,2013-02-17 19:32:00,
2013-02-17 11:37:00,56.8,43.2,29.99,SSW,197,2.0,6.0,60,0.00,,,0.00,meteohub,2013-02-17 19:37:00,
2013-02-17 11:42:00,57.4,43.2,29.99,SSW,202,2.0,4.0,59,0.00,,,0.00,meteohub,2013-02-17 19:42:00,
2013-02-17 11:47:00,58.1,43.9,29.99,WNW,288,1.0,4.0,59,0.00,,,0.00,meteohub,2013-02-17 19:47:00,
2013-02-17 11:52:00,58.3,43.5,29.99,SSW,207,1.0,4.0,58,0.00,,,0.00,meteohub,2013-02-17 19:52:00,
2013-02-17 11:57:00,57.9,42.8,29.99,SW,230,3.0,5.0,57,0.00,,,0.00,meteohub,2013-02-17 19:57:00,
2013-02-17 12:02:00,58.3,43.2,29.99,SSW,206,4.0,5.0,57,0.00,,,0.00,meteohub,2013-02-17 20:02:00,
2013-02-17 12:07:00,58.6,43.0,29.99,SSW,205,5.0,5.0,56,0.00,,,0.00,meteohub,2013-02-17 20:07:00,
2013-02-17 12:12:00,58.8,43.2,29.99,WSW,254,2.0,7.0,56,0.00,,,0.00,meteohub,2013-02-17 20:12:00,
2013-02-17 12:17:00,58.8,42.3,29.99,South,179,2.0,7.0,54,0.00,,,0.00,meteohub,2013-02-17 20:17:00,
2013-02-17 12:22:00,59.5,41.9,29.98,SW,229,4.0,5.0,52,0.00,,,0.00,meteohub,2013-02-17 20:22:00,
2013-02-17 12:27:00,59.7,42.6,29.98,SSW,206,2.0,6.0,53,0.00,,,0.00,meteohub,2013-02-17 20:27:00,
2013-02-17 12:33:00,60.3,43.0,29.98,NNW,333,3.0,6.0,53,0.00,,,0.00,meteohub,2013-02-17 20:33:00,
2013-02-17 12:38:00,60.4,42.3,29.97,West,269,1.0,6.0,51,0.00,,,0.00,meteohub,2013-02-17 20:38:00,
2013-02-17 12:43:00,60.3,42.6,29.97,West,261,1.0,6.0,52,0.00,,,0.00,meteohub,2013-02-17 20:43:00,
2013-02-17 12:48:00,60.1,43.0,29.97,SSW,211,3.0,5.0,53,0.00,,,0.00,meteohub,2013-02-17 20:48:00,
2013-02-17 12:53:00,60.8,43.5,29.96,SW,236,5.0,5.0,53,0.00,,,0.00,meteohub,2013-02-17 20:53:00,
2013-02-17 12:58:00,60.6,41.9,29.96,West,272,2.0,6.0,50,0.00,,,0.00,meteohub,2013-02-17 20:58:00,
2013-02-17 13:03:00,61.0,43.2,29.96,SSE,164,2.0,7.0,52,0.00,,,0.00,meteohub,2013-02-17 21:03:00,
2013-02-17 13:08:00,61.3,43.5,29.95,SSW,205,3.0,7.0,52,0.00,,,0.00,meteohub,2013-02-17 21:08:00,
2013-02-17 13:13:00,61.9,43.5,29.95,West,259,1.0,6.0,51,0.00,,,0.00,meteohub,2013-02-17 21:13:00,
2013-02-17 13:18:00,62.1,43.2,29.95,SW,223,2.0,6.0,50,0.00,,,0.00,meteohub,2013-02-17 21:18:00,
2013-02-17 13:23:00,61.9,44.1,29.95,West,267,0.0,7.0,52,0.00,,,0.00,meteohub,2013-02-17 21:23:00,
2013-02-17 13:28:00,61.9,43.5,29.95,South,178,5.0,7.0,51,0.00,,,0.00,meteohub,2013-02-17 21:28:00,
2013-02-17 13:33:00,61.9,42.4,29.95,SSE,163,6.0,9.0,49,0.00,,,0.00,meteohub,2013-02-17 21:33:00,
2013-02-17 13:38:00,62.2,43.3,29.94,SSW,209,2.0,9.0,50,0.00,,,0.00,meteohub,2013-02-17 21:38:00,
2013-02-17 13:43:00,62.4,44.1,29.94,SSW,202,1.0,9.0,51,0.00,,,0.00,meteohub,2013-02-17 21:43:00,
2013-02-17 13:48:00,63.0,45.1,29.94,SSW,202,5.0,9.0,52,0.00,,,0.00,meteohub,2013-02-17 21:48:00,
2013-02-17 13:53:00,63.3,45.0,29.94,SW,226,2.0,7.0,51,0.00,,,0.00,meteohub,2013-02-17 21:53:00,
2013-02-17 13:58:00,63.0,44.1,29.94,West,280,3.0,9.0,50,0.00,,,0.00,meteohub,2013-02-17 21:58:00,
2013-02-17 14:03:00,62.4,44.1,29.94,South,175,4.0,10.0,51,0.00,,,0.00,meteohub,2013-02-17 22:03:00,
2013-02-17 14:08:00,63.0,44.1,29.94,SW,221,5.0,10.0,50,0.00,,,0.00,meteohub,2013-02-17 22:08:00,
2013-02-17 14:13:00,62.8,44.4,29.94,SW,226,9.0,10.0,51,0.00,,,0.00,meteohub,2013-02-17 22:13:00,
2013-02-17 14:18:00,63.0,44.1,29.94,West,275,1.0,9.0,50,0.00,,,0.00,meteohub,2013-02-17 22:18:00,
2013-02-17 14:23:00,63.3,44.4,29.94,SSW,213,3.0,9.0,50,0.00,,,0.00,meteohub,2013-02-17 22:23:00,
2013-02-17 14:28:00,63.3,43.3,29.94,South,176,4.0,6.0,48,0.00,,,0.00,meteohub,2013-02-17 22:28:00,
2013-02-17 14:33:00,63.7,44.2,29.94,SE,142,3.0,6.0,49,0.00,,,0.00,meteohub,2013-02-17 22:33:00,
2013-02-17 14:38:00,63.9,43.7,29.94,SSE,168,2.0,6.0,48,0.00,,,0.00,meteohub,2013-02-17 22:38:00,
2013-02-17 14:43:00,63.9,44.8,29.94,SE,140,4.0,6.0,50,0.00,,,0.00,meteohub,2013-02-17 22:43:00,
2013-02-17 14:48:00,63.9,44.8,29.94,South,188,7.0,9.0,50,0.00,,,0.00,meteohub,2013-02-17 22:48:00,
2013-02-17 14:54:00,63.7,44.8,29.93,SSW,199,3.0,10.0,50,0.00,,,0.00,meteohub,2013-02-17 22:54:00,
2013-02-17 14:59:00,63.5,45.0,29.93,SSE,153,5.0,10.0,51,0.00,,,0.00,meteohub,2013-02-17 22:59:00,
2013-02-17 15:04:00,63.3,44.4,29.93,SW,214,1.0,10.0,50,0.00,,,0.00,meteohub,2013-02-17 23:04:00,
2013-02-17 15:09:00,63.5,44.1,29.93,West,281,4.0,9.0,49,0.00,,,0.00,meteohub,2013-02-17 23:09:00,
2013-02-17 15:14:00,62.8,43.3,29.93,WSW,252,2.0,9.0,49,0.00,,,0.00,meteohub,2013-02-17 23:14:00,
2013-02-17 15:19:00,63.0,41.9,29.93,South,175,2.0,10.0,46,0.00,,,0.00,meteohub,2013-02-17 23:19:00,
2013-02-17 15:24:00,63.0,42.4,29.93,SSW,193,4.0,10.0,47,0.00,,,0.00,meteohub,2013-02-17 23:24:00,
2013-02-17 15:29:00,63.0,41.4,29.93,SW,214,4.0,9.0,45,0.00,,,0.00,meteohub,2013-02-17 23:29:00,
2013-02-17 15:34:00,63.0,40.6,29.93,SSW,202,7.0,9.0,44,0.00,,,0.00,meteohub,2013-02-17 23:34:00,
2013-02-17 15:39:00,63.0,40.1,29.93,SE,146,3.0,9.0,43,0.00,,,0.00,meteohub,2013-02-17 23:39:00,
2013-02-17 15:44:00,63.1,40.8,29.93,SSE,155,6.0,8.0,44,0.00,,,0.00,meteohub,2013-02-17 23:44:00,
2013-02-17 15:49:00,63.5,41.2,29.93,SW,217,3.0,7.0,44,0.00,,,0.00,meteohub,2013-02-17 23:49:00,
2013-02-17 15:54:00,63.1,42.1,29.93,South,186,5.0,7.0,46,0.00,,,0.00,meteohub,2013-02-17 23:54:00,
2013-02-17 15:59:00,63.1,42.6,29.93,WSW,242,3.0,7.0,47,0.00,,,0.00,meteohub,2013-02-17 23:59:00,
2013-02-17 16:04:00,62.8,42.8,29.93,SW,225,4.0,9.0,48,0.00,,,0.00,meteohub,2013-02-18 00:04:00,
2013-02-17 16:09:00,62.2,41.7,29.93,South,190,5.0,9.0,47,0.00,,,0.00,meteohub,2013-02-18 00:09:00,
2013-02-17 16:14:00,62.1,42.1,29.93,SSW,198,3.0,9.0,48,0.00,,,0.00,meteohub,2013-02-18 00:14:00,
2013-02-17 16:19:00,61.9,42.4,29.93,SSW,209,1.0,9.0,49,0.00,,,0.00,meteohub,2013-02-18 00:19:00,
2013-02-17 16:24:00,61.5,42.3,29.93,SW,221,2.0,9.0,49,0.00,,,0.00,meteohub,2013-02-18 00:24:00,
2013-02-17 16:29:00,61.7,42.3,29.93,SSW,202,2.0,9.0,49,0.00,,,0.00,meteohub,2013-02-18 00:29:00,
2013-02-17 16:34:00,61.5,41.7,29.93,SSW,211,3.0,6.0,48,0.00,,,0.00,meteohub,2013-02-18 00:34:00,
2013-02-17 16:39:00,61.0,41.2,29.92,WSW,249,3.0,6.0,48,0.00,,,0.00,meteohub,2013-02-18 00:39:00,
2013-02-17 16:45:00,60.1,40.3,29.92,SSW,194,1.0,7.0,48,0.00,,,0.00,meteohub,2013-02-18 00:45:00,
2013-02-17 16:50:00,59.7,39.9,29.92,SSW,207,3.0,9.0,48,0.00,,,0.00,meteohub,2013-02-18 00:50:00,
2013-02-17 16:55:00,59.5,40.3,29.93,SSW,206,1.0,9.0,49,0.00,,,0.00,meteohub,2013-02-18 00:55:00,
2013-02-17 17:00:00,59.4,40.3,29.93,WSW,239,3.0,6.0,49,0.00,,,0.00,meteohub,2013-02-18 01:00:00,
2013-02-17 17:05:00,59.5,39.9,29.93,SW,214,3.0,6.0,48,0.00,,,0.00,meteohub,2013-02-18 01:05:00,
2013-02-17 17:10:00,58.8,39.7,29.93,SW,232,2.0,5.0,49,0.00,,,0.00,meteohub,2013-02-18 01:10:00,
2013-02-17 17:15:00,58.5,39.9,29.93,SSW,207,3.0,6.0,50,0.00,,,0.00,meteohub,2013-02-18 01:15:00,
2013-02-17 17:20:00,57.9,39.4,29.93,SW,221,2.0,6.0,50,0.00,,,0.00,meteohub,2013-02-18 01:20:00,
2013-02-17 17:25:00,57.6,39.0,29.93,SW,223,2.0,6.0,50,0.00,,,0.00,meteohub,2013-02-18 01:25:00,
2013-02-17 17:30:00,57.4,38.8,29.93,SSW,207,1.0,6.0,50,0.00,,,0.00,meteohub,2013-02-18 01:30:00,
2013-02-17 17:35:00,57.0,38.5,29.93,SSW,192,0.0,4.0,50,0.00,,,0.00,meteohub,2013-02-18 01:35:00,
2013-02-17 17:40:00,56.7,38.3,29.93,SE,144,0.0,3.0,50,0.00,,,0.00,meteohub,2013-02-18 01:40:00,
2013-02-17 17:45:00,56.5,38.1,29.93,SSE,161,0.0,4.0,50,0.00,,,0.00,meteohub,2013-02-18 01:45:00,
2013-02-17 17:50:00,55.9,38.1,29.93,SSW,202,0.0,4.0,51,0.00,,,0.00,meteohub,2013-02-18 01:50:00,
2013-02-17 17:55:00,55.6,37.8,29.93,SW,233,0.0,4.0,51,0.00,,,0.00,meteohub,2013-02-18 01:55:00,
2013-02-17 18:00:00,55.0,37.8,29.93,SW,233,0.0,2.0,52,0.00,,,0.00,meteohub,2013-02-18 02:00:00,
2013-02-17 18:05:00,54.9,38.1,29.93,SW,233,0.0,2.0,53,0.00,,,0.00,meteohub,2013-02-18 02:05:00,
2013-02-17 18:10:00,54.3,39.0,29.93,West,263,1.0,1.0,56,0.00,,,0.00,meteohub,2013-02-18 02:10:00,
2013-02-17 18:15:00,53.8,39.7,29.93,NNE,27,0.0,2.0,59,0.00,,,0.00,meteohub,2013-02-18 02:15:00,
2013-02-17 18:20:00,53.2,39.7,29.93,NNE,27,0.0,3.0,60,0.00,,,0.00,meteohub,2013-02-18 02:20:00,
2013-02-17 18:25:00,52.5,39.4,29.93,NNE,15,1.0,3.0,61,0.00,,,0.00,meteohub,2013-02-18 02:25:00,
2013-02-17 18:30:00,52.2,39.2,29.93,NNW,336,0.0,2.0,61,0.00,,,0.00,meteohub,2013-02-18 02:30:00,
2013-02-17 18:35:00,51.6,39.0,29.93,NNW,336,0.0,2.0,62,0.00,,,0.00,meteohub,2013-02-18 02:35:00,
2013-02-17 18:40:00,51.1,38.5,29.93,NNW,336,0.0,2.0,62,0.00,,,0.00,meteohub,2013-02-18 02:40:00,
2013-02-17 18:45:00,50.7,38.7,29.93,NNW,336,0.0,1.0,63,0.00,,,0.00,meteohub,2013-02-18 02:45:00,
2013-02-17 18:50:00,50.4,38.7,29.93,NNW,336,0.0,1.0,64,0.00,,,0.00,meteohub,2013-02-18 02:50:00,
2013-02-17 18:55:00,50.0,38.7,29.93,NNW,336,0.0,1.0,65,0.00,,,0.00,meteohub,2013-02-18 02:55:00,
2013-02-17 19:01:00,49.5,39.0,29.93,NNW,336,0.0,1.0,67,0.00,,,0.00,meteohub,2013-02-18 03:01:00,
2013-02-17 19:06:00,49.1,39.0,29.94,NNW,336,0.0,1.0,68,0.00,,,0.00,meteohub,2013-02-18 03:06:00,
2013-02-17 19:11:00,48.6,38.8,29.94,NNW,336,0.0,1.0,69,0.00,,,0.00,meteohub,2013-02-18 03:11:00,
2013-02-17 19:16:00,48.0,38.7,29.94,NNW,336,0.0,0.0,70,0.00,,,0.00,meteohub,2013-02-18 03:16:00,
2013-02-17 19:21:00,47.8,38.8,29.94,NNW,335,0.0,0.0,71,0.00,,,0.00,meteohub,2013-02-18 03:21:00,
2013-02-17 19:26:00,47.7,39.0,29.94,NNW,336,0.0,0.0,72,0.00,,,0.00,meteohub,2013-02-18 03:26:00,
2013-02-17 19:31:00,47.3,38.7,29.94,NNW,336,0.0,1.0,72,0.00,,,0.00,meteohub,2013-02-18 03:31:00,
2013-02-17 19:36:00,46.9,38.7,29.94,NNW,336,0.0,0.0,73,0.00,,,0.00,meteohub,2013-02-18 03:36:00,
2013-02-17 19:41:00,46.8,38.8,29.94,NNW,336,0.0,1.0,74,0.00,,,0.00,meteohub,2013-02-18 03:41:00,
2013-02-17 19:46:00,46.8,38.5,29.94,WNW,298,1.0,1.0,73,0.00,,,0.00,meteohub,2013-02-18 03:46:00,
2013-02-17 19:51:00,46.6,38.7,29.94,WNW,298,0.0,1.0,74,0.00,,,0.00,meteohub,2013-02-18 03:51:00,
2013-02-17 19:56:00,46.0,38.3,29.94,WNW,298,0.0,1.0,74,0.00,,,0.00,meteohub,2013-02-18 03:56:00,
2013-02-17 20:02:00,45.5,38.1,29.94,WNW,298,0.0,1.0,75,0.00,,,0.00,meteohub,2013-02-18 04:02:00,
2013-02-17 20:07:00,45.1,37.9,29.94,WNW,298,0.0,9.0,76,0.00,,,0.00,meteohub,2013-02-18 04:07:00,
2013-02-17 20:12:00,44.8,37.9,29.94,WNW,298,0.0,9.0,77,0.00,,,0.00,meteohub,2013-02-18 04:12:00,
2013-02-17 20:18:00,44.2,37.8,29.94,WNW,298,0.0,6.0,78,0.00,,,0.00,meteohub,2013-02-18 04:18:00,
2013-02-17 20:23:00,44.2,37.8,29.94,WNW,298,0.0,6.0,78,0.00,,,0.00,meteohub,2013-02-18 04:23:00,
2013-02-17 20:28:00,44.4,37.6,29.94,WNW,299,0.0,5.0,77,0.00,,,0.00,meteohub,2013-02-18 04:28:00,
2013-02-17 20:33:00,44.4,37.6,29.94,WNW,300,0.0,5.0,77,0.00,,,0.00,meteohub,2013-02-18 04:33:00,
2013-02-17 20:38:00,44.2,37.6,29.94,WNW,300,0.0,6.0,77,0.00,,,0.00,meteohub,2013-02-18 04:38:00,
2013-02-17 20:43:00,43.9,37.4,29.94,WNW,300,0.0,6.0,78,0.00,,,0.00,meteohub,2013-02-18 04:43:00,
2013-02-17 20:48:00,43.5,37.4,29.94,WNW,298,0.0,6.0,79,0.00,,,0.00,meteohub,2013-02-18 04:48:00,
2013-02-17 20:53:00,43.3,37.2,29.94,WNW,299,0.0,6.0,79,0.00,,,0.00,meteohub,2013-02-18 04:53:00,
2013-02-17 20:58:00,43.2,37.4,29.94,WNW,299,0.0,4.0,80,0.00,,,0.00,meteohub,2013-02-18 04:58:00,
2013-02-17 21:00:00,43.0,37.2,29.94,WNW,298,0.0,3.0,80,0.00,,,0.00,meteohub,2013-02-18 05:00:00,
2013-02-17 21:04:00,43.0,37.2,29.94,WNW,299,0.0,4.0,80,0.00,,,0.00,meteohub,2013-02-18 05:04:00,
2013-02-17 21:09:00,42.8,37.0,29.95,WNW,298,0.0,4.0,80,0.00,,,0.00,meteohub,2013-02-18 05:09:00,
2013-02-17 21:12:00,42.6,36.9,29.95,WNW,298,0.0,4.0,80,0.00,,,0.00,meteohub,2013-02-18 05:12:00,
2013-02-17 21:17:00,42.6,36.9,29.95,WNW,299,0.0,3.0,80,0.00,,,0.00,meteohub,2013-02-18 05:17:00,
2013-02-17 21:22:00,42.4,36.7,29.95,WNW,299,0.0,2.0,80,0.00,,,0.00,meteohub,2013-02-18 05:22:00,
2013-02-17 21:27:00,42.1,36.3,29.95,WNW,299,0.0,2.0,80,0.00,,,0.00,meteohub,2013-02-18 05:27:00,
2013-02-17 21:32:00,41.7,36.3,29.95,WNW,299,0.0,1.0,81,0.00,,,0.00,meteohub,2013-02-18 05:32:00,
2013-02-17 21:37:00,41.4,36.3,29.96,WNW,298,0.0,3.0,82,0.00,,,0.00,meteohub,2013-02-18 05:37:00,
2013-02-17 21:42:00,41.4,36.5,29.96,WNW,298,0.0,3.0,83,0.00,,,0.00,meteohub,2013-02-18 05:42:00,
2013-02-17 21:47:00,41.4,36.9,29.96,WNW,298,0.0,3.0,84,0.00,,,0.00,meteohub,2013-02-18 05:47:00,
2013-02-17 21:52:00,41.2,36.5,29.96,WNW,299,0.0,2.0,83,0.00,,,0.00,meteohub,2013-02-18 05:52:00,
2013-02-17 21:57:00,41.2,36.7,29.96,WNW,299,0.0,2.0,84,0.00,,,0.00,meteohub,2013-02-18 05:57:00,
2013-02-17 22:02:00,41.2,36.5,29.96,WNW,299,0.0,1.0,83,0.00,,,0.00,meteohub,2013-02-18 06:02:00,
2013-02-17 22:07:00,41.4,36.5,29.96,WNW,299,0.0,1.0,83,0.00,,,0.00,meteohub,2013-02-18 06:07:00,
2013-02-17 22:12:00,41.2,36.5,29.96,WNW,299,0.0,1.0,83,0.00,,,0.00,meteohub,2013-02-18 06:12:00,
2013-02-17 22:17:00,40.8,36.1,29.96,WNW,298,0.0,1.0,83,0.00,,,0.00,meteohub,2013-02-18 06:17:00,
2013-02-17 22:22:00,40.6,36.1,29.96,WNW,299,0.0,1.0,84,0.00,,,0.00,meteohub,2013-02-18 06:22:00,
2013-02-17 22:27:00,40.5,36.3,29.96,WNW,298,0.0,1.0,85,0.00,,,0.00,meteohub,2013-02-18 06:27:00,
2013-02-17 22:32:00,40.3,35.8,29.96,WNW,299,0.0,1.0,84,0.00,,,0.00,meteohub,2013-02-18 06:32:00,
2013-02-17 22:38:00,39.9,35.8,29.96,WNW,298,0.0,0.0,85,0.00,,,0.00,meteohub,2013-02-18 06:38:00,
2013-02-17 22:43:00,39.9,35.8,29.96,WNW,298,0.0,0.0,85,0.00,,,0.00,meteohub,2013-02-18 06:43:00,
2013-02-17 22:48:00,39.7,35.6,29.96,WNW,298,0.0,1.0,85,0.00,,,0.00,meteohub,2013-02-18 06:48:00,
2013-02-17 22:53:00,39.9,35.8,29.96,WNW,298,0.0,1.0,85,0.00,,,0.00,meteohub,2013-02-18 06:53:00,
2013-02-17 22:58:00,39.9,35.8,29.96,WNW,299,0.0,0.0,85,0.00,,,0.00,meteohub,2013-02-18 06:58:00,
2013-02-17 23:03:00,39.7,35.6,29.96,WNW,299,0.0,1.0,85,0.00,,,0.00,meteohub,2013-02-18 07:03:00,
2013-02-17 23:08:00,39.7,35.6,29.96,WNW,299,0.0,1.0,85,0.00,,,0.00,meteohub,2013-02-18 07:08:00,
2013-02-17 23:13:00,39.6,35.4,29.96,WNW,298,0.0,1.0,85,0.00,,,0.00,meteohub,2013-02-18 07:13:00,
2013-02-17 23:18:00,39.2,35.1,29.96,WNW,298,0.0,1.0,85,0.00,,,0.00,meteohub,2013-02-18 07:18:00,
2013-02-17 23:24:00,39.0,35.2,29.96,WNW,298,0.0,1.0,86,0.00,,,0.00,meteohub,2013-02-18 07:24:00,
2013-02-17 23:29:00,39.0,35.2,29.96,WNW,298,0.0,0.0,86,0.00,,,0.00,meteohub,2013-02-18 07:29:00,
2013-02-17 23:34:00,38.8,35.1,29.96,WNW,298,0.0,1.0,86,0.00,,,0.00,meteohub,2013-02-18 07:34:00,
2013-02-17 23:39:00,38.5,34.7,29.96,WNW,298,0.0,1.0,86,0.00,,,0.00,meteohub,2013-02-18 07:39:00,
2013-02-17 23:44:00,38.7,35.1,29.96,WNW,298,0.0,1.0,87,0.00,,,0.00,meteohub,2013-02-18 07:44:00,
2013-02-17 23:49:00,38.5,34.9,29.96,WNW,298,0.0,1.0,87,0.00,,,0.00,meteohub,2013-02-18 07:49:00,
2013-02-17 23:56:00,38.5,34.9,29.96,WNW,298,0.0,1.0,87,0.00,,,0.00,meteohub,2013-02-18 07:56:00,